createdAt,value
2022-08-30T00:02:54.954Z,5.75
2022-08-30T00:07:59.599Z,6.25
2022-08-30T00:13:03.220Z,5.00
2022-08-30T00:18:06.854Z,4.00
2022-08-30T00:23:10.927Z,6.25
2022-08-30T00:28:14.386Z,4.00
2022-08-30T00:33:17.862Z,5.50
2022-08-30T00:38:24.256Z,6.75
2022-08-30T00:43:31.021Z,6.50
2022-08-30T00:48:34.523Z,3.75
2022-08-30T00:53:42.353Z,6.25
2022-08-30T00:58:48.278Z,6.00
2022-08-30T01:03:51.196Z,8.00
2022-08-30T01:08:55.478Z,6.00
2022-08-30T01:13:58.426Z,5.50
2022-08-30T01:19:01.671Z,4.25
2022-08-30T01:24:08.471Z,7.50
2022-08-30T01:29:17.884Z,5.00
2022-08-30T01:34:20.660Z,4.00
2022-08-30T01:39:25.942Z,4.00
2022-08-30T01:44:28.626Z,4.25
2022-08-30T01:49:31.344Z,3.75
2022-08-30T01:54:38.586Z,4.75
2022-08-30T01:59:47.369Z,5.50
2022-08-30T02:04:51.739Z,5.00
2022-08-30T02:09:56.670Z,4.25
2022-08-30T02:14:59.345Z,6.00
2022-08-30T02:20:02.227Z,6.50
2022-08-30T02:25:20.608Z,6.00
2022-08-30T02:30:24.052Z,5.75
2022-08-30T02:35:27.025Z,5.25
2022-08-30T02:40:31.627Z,5.00
2022-08-30T02:45:34.913Z,7.00
2022-08-30T02:50:40.854Z,3.75
2022-08-30T02:55:45.857Z,5.50
2022-08-30T03:00:48.578Z,6.50
2022-08-30T03:05:54.018Z,5.25
2022-08-30T03:10:58.095Z,5.00
2022-08-30T03:16:00.816Z,6.00
2022-08-30T03:21:04.353Z,4.75
2022-08-30T03:26:08.528Z,4.00
2022-08-30T03:31:11.547Z,3.00
2022-08-30T03:36:14.290Z,4.25
2022-08-30T03:41:18.392Z,5.50
2022-08-30T03:46:21.078Z,5.00
2022-08-30T03:51:29.683Z,4.50
2022-08-30T03:56:33.845Z,4.25
2022-08-30T04:01:36.609Z,3.00
2022-08-30T04:06:39.567Z,6.25
2022-08-30T04:11:43.686Z,4.50
2022-08-30T04:16:46.637Z,3.75
2022-08-30T04:21:49.617Z,3.25
2022-08-30T04:26:53.647Z,4.00
2022-08-30T04:31:56.364Z,4.50
2022-08-30T04:36:59.064Z,2.75
2022-08-30T04:42:03.288Z,2.75
2022-08-30T04:47:06.160Z,3.00
2022-08-30T04:52:10.852Z,5.00
2022-08-30T04:57:14.968Z,3.75
2022-08-30T05:02:18.192Z,3.50
2022-08-30T05:07:20.957Z,3.00
2022-08-30T05:12:25.642Z,3.75
2022-08-30T05:17:28.437Z,3.25
2022-08-30T05:22:31.159Z,2.00
2022-08-30T05:27:37.808Z,3.00
2022-08-30T05:32:41.146Z,3.00
2022-08-30T05:37:44.382Z,3.00
2022-08-30T05:42:48.747Z,4.50
2022-08-30T05:47:51.477Z,4.00
2022-08-30T05:52:54.375Z,4.00
2022-08-30T05:57:59.426Z,2.25
2022-08-30T06:03:03.148Z,2.50
2022-08-30T06:08:05.968Z,3.75
2022-08-30T06:13:10.683Z,3.50
2022-08-30T06:18:14.290Z,2.00
2022-08-30T06:23:17.813Z,3.25
2022-08-30T06:28:21.995Z,3.25
2022-08-30T06:33:24.708Z,2.00
2022-08-30T06:38:27.789Z,3.50
2022-08-30T06:43:32.004Z,3.75
2022-08-30T06:48:34.878Z,2.25
2022-08-30T06:53:37.727Z,3.00
2022-08-30T06:58:41.983Z,3.00
2022-08-30T07:03:45.124Z,4.00
2022-08-30T07:08:50.527Z,4.00
2022-08-30T07:14:01.391Z,2.25
2022-08-30T07:19:05.803Z,2.00
2022-08-30T07:24:10.116Z,2.50
2022-08-30T07:29:14.440Z,2.75
2022-08-30T07:34:19.778Z,2.25
2022-08-30T07:39:24.151Z,3.25
2022-08-30T07:44:28.499Z,2.00
2022-08-30T07:49:31.181Z,3.25
2022-08-30T07:54:34.115Z,2.50
2022-08-30T07:59:38.120Z,2.75
2022-08-30T08:04:40.859Z,2.25
2022-08-30T08:09:43.648Z,1.75
2022-08-30T08:14:47.664Z,3.75
2022-08-30T08:19:50.344Z,2.00
2022-08-30T08:24:53.037Z,2.00
2022-08-30T08:29:57.098Z,2.00
2022-08-30T08:34:59.771Z,1.75
2022-08-30T08:40:02.524Z,2.00
2022-08-30T08:45:12.532Z,2.50
2022-08-30T08:50:20.072Z,3.00
2022-08-30T08:55:24.901Z,2.00
2022-08-30T09:00:29.971Z,3.00
2022-08-30T09:05:38.990Z,2.00
2022-08-30T09:10:51.164Z,4.00
2022-08-30T09:15:59.478Z,2.75
2022-08-30T09:21:07.415Z,3.00
2022-08-30T09:26:10.586Z,3.00
2022-08-30T09:31:22.302Z,2.50
2022-08-30T09:36:31.756Z,2.50
2022-08-30T09:41:42.783Z,1.75
2022-08-30T09:46:50.843Z,4.00
2022-08-30T09:52:00.425Z,3.75
2022-08-30T09:57:13.242Z,1.50
2022-08-30T10:02:44.120Z,1.00
2022-08-30T10:07:59.096Z,2.25
2022-08-30T10:13:15.409Z,2.25
2022-08-30T10:18:26.689Z,2.25
2022-08-30T10:23:33.785Z,1.75
2022-08-30T10:28:43.052Z,1.75
2022-08-30T10:33:57.280Z,1.75
2022-08-30T10:39:02.220Z,1.25
2022-08-30T10:44:12.245Z,1.00
2022-08-30T10:49:20.620Z,2.00
2022-08-30T10:54:32.586Z,2.00
2022-08-30T10:59:40.223Z,1.50
2022-08-30T11:05:04.393Z,1.25
2022-08-30T11:10:25.782Z,2.00
2022-08-30T11:15:32.242Z,1.75
2022-08-30T11:20:42.016Z,2.00
2022-08-30T11:25:57.409Z,1.00
2022-08-30T11:31:07.234Z,1.50
2022-08-30T11:36:13.493Z,1.25
2022-08-30T11:41:34.188Z,2.00
2022-08-30T11:46:40.893Z,1.25
2022-08-30T11:57:37.427Z,2.00
2022-08-30T12:02:49.963Z,1.00
2022-08-30T12:08:03.082Z,2.25
2022-08-30T12:13:07.170Z,2.50
2022-08-30T12:18:31.483Z,2.00
2022-08-30T12:23:44.551Z,1.25
2022-08-30T12:28:50.713Z,1.50
2022-08-30T12:33:56.645Z,1.00
2022-08-30T12:39:10.865Z,2.00
2022-08-30T12:44:17.064Z,1.75
2022-08-30T12:49:21.909Z,2.50
2022-08-30T12:54:31.782Z,1.00
2022-08-30T12:59:52.859Z,0.75
2022-08-30T13:04:58.008Z,0.75
2022-08-30T13:10:08.682Z,1.00
2022-08-30T13:15:20.138Z,2.50
2022-08-30T13:20:26.375Z,6.75
2022-08-30T13:25:32.801Z,7.75
2022-08-30T13:30:36.359Z,7.50
2022-08-30T13:35:39.491Z,8.00
2022-08-30T13:40:44.408Z,10.00
2022-08-30T13:45:47.401Z,6.50
2022-08-30T13:50:50.206Z,10.50
2022-08-30T13:55:54.588Z,12.75
2022-08-30T14:00:57.463Z,8.50
2022-08-30T14:06:29.518Z,11.00
2022-08-30T14:11:28.236Z,13.00
2022-08-30T14:16:31.798Z,10.25
2022-08-30T14:21:34.677Z,12.75
2022-08-30T14:26:41.928Z,9.25
2022-08-30T14:31:47.024Z,11.50
2022-08-30T14:36:50.428Z,9.75
2022-08-30T14:41:56.541Z,10.00
2022-08-30T14:46:59.336Z,11.25
2022-08-30T14:52:03.813Z,10.00
2022-08-30T14:57:07.835Z,10.00
2022-08-30T15:02:10.682Z,11.25
2022-08-30T15:07:13.916Z,9.00
2022-08-30T15:12:18.177Z,7.50
2022-08-30T15:17:20.981Z,8.00
2022-08-30T15:22:23.728Z,8.50
2022-08-30T15:27:28.610Z,10.75
2022-08-30T15:32:32.095Z,7.75
2022-08-30T15:37:35.114Z,10.25
2022-08-30T15:42:39.331Z,9.75
2022-08-30T15:47:42.294Z,8.00
2022-08-30T15:52:45.023Z,8.50
2022-08-30T15:57:49.097Z,11.00
2022-08-30T16:02:53.212Z,8.00
2022-08-30T16:07:56.002Z,6.75
2022-08-30T16:13:01.633Z,8.25
2022-08-30T16:18:05.789Z,9.50
2022-08-30T16:23:08.789Z,9.25
2022-08-30T16:28:12.834Z,8.25
2022-08-30T16:33:15.955Z,9.50
2022-08-30T16:38:18.864Z,9.50
2022-08-30T16:43:23.937Z,7.25
2022-08-30T16:48:26.723Z,7.25
2022-08-30T16:53:30.092Z,9.00
2022-08-30T16:58:34.237Z,7.25
2022-08-30T17:03:37.694Z,6.75
2022-08-30T17:08:42.025Z,8.00
2022-08-30T17:13:46.106Z,8.00
2022-08-30T17:18:48.946Z,6.25
2022-08-30T17:23:51.894Z,6.25
2022-08-30T17:28:55.985Z,5.00
2022-08-30T17:34:03.318Z,8.00
2022-08-30T17:39:11.042Z,4.75
2022-08-30T17:44:15.758Z,6.75
2022-08-30T17:49:18.711Z,7.00
2022-08-30T17:54:21.908Z,5.75
2022-08-30T17:59:29.203Z,5.00
2022-08-30T18:04:35.409Z,7.00
2022-08-30T18:09:38.603Z,5.50
2022-08-30T18:14:42.590Z,7.75
2022-08-30T18:19:46.095Z,7.25
2022-08-30T18:24:49.500Z,7.00
2022-08-30T18:29:53.553Z,4.75
2022-08-30T18:34:56.364Z,5.50
2022-08-30T18:40:01.100Z,6.00
2022-08-30T18:45:14.706Z,7.00
2022-08-30T18:50:18.576Z,6.50
2022-08-30T18:55:22.837Z,4.25
2022-08-30T19:00:26.919Z,4.00
2022-08-30T19:05:29.880Z,5.25
2022-08-30T19:10:33.429Z,6.75
2022-08-30T19:15:37.597Z,5.75
2022-08-30T19:20:40.575Z,4.25
2022-08-30T19:25:44.624Z,5.25
2022-08-30T19:30:49.381Z,5.00
2022-08-30T19:35:52.202Z,5.50
2022-08-30T19:40:58.931Z,5.25
2022-08-30T19:46:03.111Z,5.00
2022-08-30T19:51:08.306Z,6.00
2022-08-30T19:56:11.372Z,5.50
2022-08-30T20:01:32.524Z,6.00
2022-08-30T20:06:37.025Z,4.00
2022-08-30T20:11:42.167Z,7.50
2022-08-30T20:16:47.446Z,8.75
2022-08-30T20:21:50.229Z,5.50
2022-08-30T20:26:53.870Z,5.25
2022-08-30T20:31:58.035Z,5.50
2022-08-30T20:37:00.892Z,7.75
2022-08-30T20:42:04.138Z,6.25
2022-08-30T20:47:08.452Z,7.50
2022-08-30T20:52:11.296Z,6.75
2022-08-30T20:57:14.879Z,6.25
2022-08-30T21:02:19.065Z,6.25
2022-08-30T21:07:21.847Z,6.50
2022-08-30T21:12:25.122Z,5.50
2022-08-30T21:17:30.195Z,7.50
2022-08-30T21:22:32.939Z,8.00
2022-08-30T21:27:35.830Z,7.50
2022-08-30T21:32:39.915Z,8.75
2022-08-30T21:37:42.634Z,5.50
2022-08-30T21:42:48.296Z,8.00
2022-08-30T21:47:52.286Z,7.50
2022-08-30T21:52:54.971Z,8.25
2022-08-30T21:57:57.668Z,6.00
2022-08-30T22:03:01.798Z,8.00
2022-08-30T22:08:04.852Z,6.00
2022-08-30T22:13:10.035Z,4.50
2022-08-30T22:18:14.715Z,8.75
2022-08-30T22:23:19.111Z,5.00
2022-08-30T22:28:23.307Z,8.00
2022-08-30T22:33:27.422Z,7.50
2022-08-30T22:38:30.099Z,4.50
2022-08-30T22:43:32.936Z,7.25
2022-08-30T22:48:38.412Z,6.00
2022-08-30T22:53:41.812Z,8.50
2022-08-30T22:58:45.494Z,4.50
2022-08-30T23:03:49.981Z,4.75
2022-08-30T23:08:52.801Z,4.25
2022-08-30T23:13:55.655Z,6.00
2022-08-30T23:18:59.789Z,5.50
2022-08-30T23:24:20.157Z,4.00
2022-08-30T23:29:40.938Z,5.50
2022-08-30T23:35:02.805Z,5.75
2022-08-30T23:40:24.559Z,5.25
2022-08-30T23:45:45.136Z,3.50
2022-08-30T23:51:06.697Z,2.25
2022-08-30T23:56:28.804Z,5.00
